Terminal Aerodrome Forecast
Issued by NWS

Home | Current Version | Previous Version | Text Only | Print | Product List | Glossary On
Versions: 1 2 3 4 5 6 7 8 9 10 11 12
000
FTUS41 KCLE 251720
TAFFDY
TAF
KFDY 251720Z 2518/2618 19011KT P6SM SCT250
     FM260000 19007KT P6SM BKN250
     FM260900 19004KT P6SM VCTS SCT025CB OVC035
     FM261000 VRB03KT 4SM -TSRA OVC025CB
     FM261200 18006KT 4SM BR OVC035
     FM261500 21008KT P6SM BKN250=

USA.gov is the U.S. government's official web portal to all federal, state and local government web resources and services.